| time (UTC) | temp C | wind direction | speed KPH | gust KPH | rain 1hr cm | rain 24hr cm | rain mn cm | humidity % | barometer mb |
| 20260903060020 | 15 | 248 | 0.0 | 3.2 | 0.00 | 0.00 | 0.00 | 82 | 1022.5 |
| 20260903055018 | 15 | 231 | 0.0 | 0.0 | 0.00 | 0.00 | 0.00 | 82 | 1022.4 |
| 20260903054020 | 15 | 225 | 0.0 | 3.2 | 0.00 | 0.00 | 0.00 | 83 | 1022.3 |
| 20260903053020 | 15 | 225 | 0.0 | 4.8 | 0.00 | 0.00 | 0.00 | 82 | 1022.2 |
| 20260903052018 | 15 | 248 | 0.0 | 3.2 | 0.00 | 0.00 | 0.00 | 82 | 1022.2 |
| 20260903051018 | 14 | 248 | 1.6 | 4.8 | 0.00 | 0.00 | 0.00 | 82 | 1022.1 |
| 20260903050018 | 14 | 248 | 1.6 | 4.8 | 0.00 | 0.00 | 0.00 | 82 | 1022.2 |
| 20260903045018 | 14 | 225 | 1.6 | 6.4 | 0.00 | 0.00 | 0.00 | 82 | 1022.1 |
| 20260903044018 | 14 | 270 | 1.6 | 6.4 | 0.00 | 0.00 | 0.00 | 81 | 1022.1 |
| 20260903043020 | 15 | 248 | 1.6 | 3.2 | 0.00 | 0.00 | 0.00 | 81 | 1022.0 |
| 20260903042018 | 15 | 248 | 1.6 | 4.8 | 0.00 | 0.00 | 0.00 | 81 | 1021.9 |
| 20260903041019 | 15 | 248 | 0.0 | 3.2 | 0.00 | 0.00 | 0.00 | 80 | 1022.0 |
| 20260903040020 | 15 | 270 | 0.0 | 3.2 | 0.00 | 0.00 | 0.00 | 80 | 1021.9 |
| 20260903035020 | 15 | 270 | 1.6 | 3.2 | 0.00 | 0.00 | 0.00 | 80 | 1021.9 |
| 20260903034020 | 15 | 270 | 0.0 | 3.2 | 0.00 | 0.00 | 0.00 | 79 | 1021.9 |
| 20260903033020 | 15 | 248 | 1.6 | 3.2 | 0.00 | 0.00 | 0.00 | 79 | 1022.0 |
| 20260903032020 | 15 | 248 | 1.6 | 4.8 | 0.00 | 0.00 | 0.00 | 79 | 1021.9 |
| 20260903031021 | 16 | 248 | 1.6 | 4.8 | 0.00 | 0.00 | 0.00 | 78 | 1021.8 |
| 20260903030020 | 16 | 252 | 0.0 | 0.0 | 0.00 | 0.00 | 0.00 | 78 | 1021.8 |
| 20260903025020 | 16 | 232 | 0.0 | 0.0 | 0.00 | 0.00 | 0.00 | 77 | 1021.9 |
| 20260903022019 | 16 | 250 | 0.0 | 0.0 | 0.00 | 0.00 | 0.00 | 78 | 1021.8 |
| 20260903021021 | 16 | 234 | 0.0 | 0.0 | 0.00 | 0.00 | 0.00 | 77 | 1021.7 |
| 20260903020020 | 16 | 264 | 0.0 | 0.0 | 0.00 | 0.00 | 0.00 | 76 | 1021.6 |
| 20260903015020 | 17 | 254 | 0.0 | 0.0 | 0.00 | 0.00 | 0.00 | 76 | 1021.8 |
| 20260903014020 | 17 | 250 | 0.0 | 0.0 | 0.00 | 0.00 | 0.00 | 76 | 1021.7 |
| 20260903013020 | 17 | 273 | 0.0 | 0.0 | 0.00 | 0.00 | 0.00 | 75 | 1021.8 |
| 20260903012019 | 16 | 275 | 0.0 | 0.0 | 0.00 | 0.00 | 0.00 | 76 | 1021.6 |
| 20260903011023 | 16 | 275 | 0.0 | 0.0 | 0.00 | 0.00 | 0.00 | 75 | 1021.6 |
| 20260903010020 | 17 | 266 | 0.0 | 0.0 | 0.00 | 0.00 | 0.00 | 78 | 1021.5 |
| 20260903005019 | 17 | 310 | 0.0 | 0.0 | 0.00 | 0.00 | 0.00 | 76 | 1021.6 |
| 20260903003019 | 17 | 310 | 0.0 | 0.0 | 0.00 | 0.00 | 0.00 | 78 | 1021.5 |
| 20260903002019 | 17 | 310 | 0.0 | 0.0 | 0.00 | 0.00 | 0.00 | 78 | 1021.4 |
| 20260903000020 | 17 | 315 | 0.0 | 1.6 | 0.00 | 0.00 | 0.00 | 78 | 1021.5 |
| 20260902235019 | 17 | 310 | 0.0 | 0.0 | 0.00 | 0.00 | 0.00 | 76 | 1021.5 |
| 20260902233019 | 17 | 315 | 0.0 | 1.6 | 0.00 | 0.00 | 0.00 | 74 | 1021.5 |
| 20260902231019 | 17 | 310 | 0.0 | 0.0 | 0.00 | 0.00 | 0.00 | 75 | 1021.4 |
| 20260902230019 | 18 | 310 | 0.0 | 0.0 | 0.00 | 0.00 | 0.00 | 74 | 1021.5 |
| 20260902225020 | 18 | 315 | 0.0 | 1.6 | 0.00 | 0.00 | 0.00 | 74 | 1021.5 |
| 20260902224019 | 18 | 315 | 0.0 | 1.6 | 0.00 | 0.00 | 0.00 | 74 | 1021.6 |
| 20260902223020 | 18 | 310 | 0.0 | 0.0 | 0.00 | 0.00 | 0.00 | 74 | 1021.6 |
| 20260902221019 | 18 | 293 | 0.0 | 3.2 | 0.00 | 0.00 | 0.00 | 75 | 1021.6 |
| 20260902220020 | 18 | 293 | 1.6 | 4.8 | 0.00 | 0.00 | 0.00 | 73 | 1021.5 |
| 20260902215018 | 18 | 293 | 3.2 | 6.4 | 0.00 | 0.00 | 0.00 | 72 | 1021.4 |
| 20260902213018 | 18 | 270 | 1.6 | 9.7 | 0.00 | 0.00 | 0.00 | 70 | 1021.4 |
| 20260902212018 | 18 | 270 | 0.0 | 1.6 | 0.00 | 0.00 | 0.00 | 69 | 1021.3 |
| 20260902211018 | 18 | 270 | 0.0 | 1.6 | 0.00 | 0.00 | 0.00 | 69 | 1021.2 |
| 20260902210020 | 18 | 270 | 1.6 | 6.4 | 0.00 | 0.00 | 0.00 | 69 | 1021.2 |
| 20260902205018 | 18 | 293 | 1.6 | 4.8 | 0.00 | 0.00 | 0.00 | 68 | 1021.0 |
| 20260902204018 | 19 | 338 | 0.0 | 1.6 | 0.00 | 0.00 | 0.00 | 67 | 1021.0 |
| 20260902203020 | 19 | 338 | 0.0 | 1.6 | 0.00 | 0.00 | 0.00 | 66 | 1020.9 |
| 20260902202020 | 19 | 338 | 0.0 | 0.0 | 0.00 | 0.00 | 0.00 | 67 | 1020.9 |
| 20260902201020 | 19 | 338 | 0.0 | 0.0 | 0.00 | 0.00 | 0.00 | 68 | 1020.9 |
| 20260902200020 | 19 | 338 | 0.0 | 0.0 | 0.00 | 0.00 | 0.00 | 66 | 1020.8 |
| 20260902194018 | 19 | 338 | 0.0 | 1.6 | 0.00 | 0.00 | 0.00 | 65 | 1020.8 |
| 20260902193021 | 19 | 338 | 0.0 | 1.6 | 0.00 | 0.00 | 0.00 | 64 | 1020.8 |
| 20260902192020 | 19 | 338 | 0.0 | 0.0 | 0.00 | 0.00 | 0.00 | 64 | 1020.7 |
| 20260902191020 | 20 | 338 | 0.0 | 0.0 | 0.00 | 0.00 | 0.00 | 65 | 1020.7 |
| 20260902190020 | 20 | 338 | 0.0 | 0.0 | 0.00 | 0.00 | 0.00 | 62 | 1020.5 |
| 20260902185022 | 20 | 338 | 0.0 | 0.0 | 0.00 | 0.00 | 0.00 | 61 | 1020.5 |
| 20260902184020 | 20 | 338 | 0.0 | 0.0 | 0.00 | 0.00 | 0.00 | 60 | 1020.4 |
| 20260902182020 | 21 | 338 | 0.0 | 0.0 | 0.00 | 0.00 | 0.00 | 58 | 1020.2 |
| 20260902181019 | 21 | 338 | 0.0 | 0.0 | 0.00 | 0.00 | 0.00 | 57 | 1020.1 |
| 20260902180019 | 22 | 338 | 0.0 | 0.0 | 0.00 | 0.00 | 0.00 | 55 | 1020.0 |
| 20260902175020 | 22 | 338 | 0.0 | 3.2 | 0.00 | 0.00 | 0.00 | 55 | 1019.9 |
| 20260902174020 | 22 | 338 | 0.0 | 1.6 | 0.00 | 0.00 | 0.00 | 55 | 1019.7 |
| 20260902171020 | 23 | 338 | 0.0 | 3.2 | 0.00 | 0.00 | 0.00 | 51 | 1019.8 |
| 20260902170019 | 23 | 293 | 1.6 | 6.4 | 0.00 | 0.00 | 0.00 | 50 | 1019.7 |
| 20260902165019 | 24 | 270 | 0.0 | 3.2 | 0.00 | 0.00 | 0.00 | 51 | 1019.9 |
| 20260902164020 | 24 | 338 | 1.6 | 4.8 | 0.00 | 0.00 | 0.00 | 51 | 1019.8 |
| 20260902162019 | 24 | 338 | 0.0 | 4.8 | 0.00 | 0.00 | 0.00 | 52 | 1019.9 |
| 20260902161019 | 24 | 338 | 0.0 | 4.8 | 0.00 | 0.00 | 0.00 | 51 | 1019.9 |
| 20260902160020 | 25 | 315 | 0.0 | 3.2 | 0.00 | 0.00 | 0.00 | 50 | 1019.9 |
| 20260902155019 | 25 | 0 | 1.6 | 6.4 | 0.00 | 0.00 | 0.00 | 48 | 1019.9 |
| 20260902154019 | 25 | 293 | 3.2 | 9.7 | 0.00 | 0.00 | 0.00 | 46 | 1019.9 |
| 20260902153020 | 25 | 293 | 6.4 | 14.5 | 0.00 | 0.00 | 0.00 | 43 | 1019.9 |
| 20260902152019 | 25 | 338 | 4.8 | 12.9 | 0.00 | 0.00 | 0.00 | 46 | 1020.0 |
| 20260902151019 | 25 | 293 | 6.4 | 12.9 | 0.00 | 0.00 | 0.00 | 45 | 1020.1 |
| 20260902150019 | 25 | 293 | 1.6 | 9.7 | 0.00 | 0.00 | 0.00 | 45 | 1020.2 |
| 20260902145019 | 25 | 293 | 3.2 | 11.3 | 0.00 | 0.00 | 0.00 | 44 | 1020.2 |
| 20260902144020 | 25 | 293 | 3.2 | 11.3 | 0.00 | 0.00 | 0.00 | 46 | 1020.3 |
| 20260902142019 | 25 | 293 | 3.2 | 11.3 | 0.00 | 0.00 | 0.00 | 46 | 1020.4 |
| 20260902141019 | 25 | 248 | 4.8 | 16.1 | 0.00 | 0.00 | 0.00 | 44 | 1020.4 |
| 20260902140019 | 26 | 293 | 4.8 | 14.5 | 0.00 | 0.00 | 0.00 | 44 | 1020.4 |
| 20260902135020 | 26 | 293 | 4.8 | 19.3 | 0.00 | 0.00 | 0.00 | 41 | 1020.4 |
| 20260902134019 | 27 | 293 | 8.0 | 20.9 | 0.00 | 0.00 | 0.00 | 41 | 1020.4 |
| 20260902132019 | 28 | 293 | 3.2 | 11.3 | 0.00 | 0.00 | 0.00 | 39 | 1020.6 |
| 20260902131019 | 28 | 293 | 6.4 | 14.5 | 0.00 | 0.00 | 0.00 | 40 | 1020.7 |
| 20260902130019 | 29 | 293 | 3.2 | 17.7 | 0.00 | 0.00 | 0.00 | 39 | 1020.8 |
| 20260902125019 | 29 | 270 | 4.8 | 17.7 | 0.00 | 0.00 | 0.00 | 39 | 1020.8 |
| 20260902124019 | 29 | 248 | 1.6 | 9.7 | 0.00 | 0.00 | 0.00 | 38 | 1020.9 |
| 20260902123019 | 29 | 315 | 3.2 | 8.0 | 0.00 | 0.00 | 0.00 | 39 | 1021.0 |
| 20260902122019 | 27 | 315 | 1.6 | 4.8 | 0.00 | 0.00 | 0.00 | 45 | 1021.0 |
| 20260902121019 | 26 | 68 | 1.6 | 6.4 | 0.00 | 0.00 | 0.00 | 47 | 1021.1 |
| 20260902120019 | 25 | 68 | 3.2 | 9.7 | 0.00 | 0.00 | 0.00 | 47 | 1021.2 |
| 20260902115019 | 25 | 23 | 3.2 | 6.4 | 0.00 | 0.00 | 0.00 | 50 | 1021.4 |
| 20260902114020 | 25 | 68 | 0.0 | 6.4 | 0.00 | 0.00 | 0.00 | 49 | 1021.4 |
| 20260902113019 | 24 | 23 | 1.6 | 6.4 | 0.00 | 0.00 | 0.00 | 49 | 1021.6 |
| 20260902110019 | 25 | 281 | 0.0 | 0.0 | 0.00 | 0.00 | 0.00 | 52 | 1021.6 |
| 20260902105019 | 23 | 191 | 0.0 | 0.0 | 0.00 | 0.00 | 0.00 | 53 | 1021.6 |
| 20260902104019 | 23 | 248 | 0.0 | 0.0 | 0.00 | 0.00 | 0.00 | 54 | 1021.8 |
| 20260902103019 | 23 | 144 | 0.0 | 0.0 | 0.00 | 0.00 | 0.00 | 52 | 1021.7 |
| 20260902102019 | 23 | 168 | 0.0 | 0.0 | 0.00 | 0.00 | 0.00 | 48 | 1021.9 |
| 20260902101018 | 23 | 83 | 0.0 | 0.0 | 0.00 | 0.00 | 0.00 | 52 | 1022.1 |
| 20260902100018 | 23 | 138 | 0.0 | 0.0 | 0.00 | 0.00 | 0.00 | 52 | 1022.2 |
| 20260902095019 | 23 | 351 | 0.0 | 0.0 | 0.00 | 0.00 | 0.00 | 52 | 1022.3 |
| 20260902094020 | 23 | 10 | 0.0 | 0.0 | 0.00 | 0.00 | 0.00 | 51 | 1022.1 |
| 20260902093019 | 23 | 183 | 0.0 | 0.0 | 0.00 | 0.00 | 0.00 | 51 | 1022.1 |
| 20260902092018 | 22 | 214 | 0.0 | 0.0 | 0.00 | 0.00 | 0.00 | 54 | 1022.1 |
| 20260902090019 | 23 | 207 | 0.0 | 0.0 | 0.00 | 0.00 | 0.00 | 52 | 1022.1 |
| 20260902085018 | 23 | 298 | 0.0 | 0.0 | 0.00 | 0.00 | 0.00 | 53 | 1022.3 |
| 20260902083018 | 23 | 100 | 0.0 | 0.0 | 0.00 | 0.00 | 0.00 | 51 | 1022.1 |
| 20260902082019 | 23 | 94 | 0.0 | 0.0 | 0.00 | 0.00 | 0.00 | 49 | 1022.0 |
| 20260902081018 | 24 | 97 | 0.0 | 0.0 | 0.00 | 0.00 | 0.00 | 48 | 1022.0 |
| 20260902080019 | 24 | 114 | 0.0 | 0.0 | 0.00 | 0.00 | 0.00 | 53 | 1022.0 |
| 20260902075019 | 24 | 104 | 0.0 | 0.0 | 0.00 | 0.00 | 0.00 | 55 | 1022.1 |
| 20260902073019 | 21 | 137 | 0.0 | 0.0 | 0.00 | 0.00 | 0.00 | 67 | 1022.0 |
| 20260902071020 | 18 | 232 | 0.0 | 0.0 | 0.00 | 0.00 | 0.00 | 74 | 1022.2 |
| 20260902070018 | 17 | 232 | 0.0 | 0.0 | 0.00 | 0.00 | 0.00 | 78 | 1022.1 |
| 20260902065018 | 16 | 251 | 0.0 | 0.0 | 0.00 | 0.00 | 0.00 | 84 | 1022.1 |
| 20260902064018 | 15 | 280 | 0.0 | 0.0 | 0.00 | 0.00 | 0.00 | 86 | 1022.0 |
| 20260902063021 | 14 | 19 | 0.0 | 0.0 | 0.00 | 0.00 | 0.00 | 88 | 1021.9 |
| 20260902062018 | 13 | 19 | 0.0 | 0.0 | 0.00 | 0.00 | 0.00 | 88 | 1021.9 |